Metar z połowy godziny Komunikat METAR ze strony awiacja.imgw.pl Metar G00 EPSY METAR EPSY 261830Z 28008KT 230V330 9999 -SN OVC023 00/M03 Q1004=